createdAt,value
2022-11-03T00:01:39.179Z,96999.41
2022-11-03T00:04:40.823Z,96981.44
2022-11-03T00:07:42.321Z,96972.25
2022-11-03T00:10:44.055Z,96977.06
2022-11-03T00:13:45.591Z,96980.81
2022-11-03T00:16:47.734Z,97009.25
2022-11-03T00:19:49.288Z,96989.22
2022-11-03T00:22:50.868Z,96991.28
2022-11-03T00:25:52.386Z,96990.94
2022-11-03T00:28:54.748Z,96980.03
2022-11-03T00:31:56.268Z,96968.31
2022-11-03T00:34:57.850Z,96983.47
2022-11-03T00:37:59.408Z,97009.22
2022-11-03T00:41:01.370Z,96995.47
2022-11-03T00:44:02.874Z,97002.19
2022-11-03T00:47:04.508Z,97010.00
2022-11-03T00:50:06.139Z,96953.31
2022-11-03T00:53:08.043Z,97005.47
2022-11-03T00:56:11.335Z,97020.28
2022-11-03T00:59:13.021Z,97035.13
2022-11-03T01:02:14.758Z,97002.97
2022-11-03T01:05:34.952Z,96989.41
2022-11-03T01:08:36.831Z,97001.53
2022-11-03T01:11:44.294Z,97011.09
2022-11-03T01:14:47.145Z,96991.41
2022-11-03T01:17:48.698Z,97037.13
2022-11-03T01:20:56.837Z,97021.66
2022-11-03T01:24:00.759Z,97010.59
2022-11-03T01:27:02.306Z,97027.59
2022-11-03T01:30:04.088Z,97024.00
2022-11-03T01:33:05.941Z,97030.06
2022-11-03T01:36:07.968Z,97030.69
2022-11-03T01:39:10.752Z,97040.00
2022-11-03T01:42:13.836Z,97026.72
2022-11-03T01:45:15.455Z,97022.22
2022-11-03T01:48:17.044Z,97032.22
2022-11-03T01:51:19.366Z,97021.13
2022-11-03T01:54:21.680Z,97024.69
2022-11-03T01:57:25.340Z,97049.31
2022-11-03T02:00:26.903Z,97025.91
2022-11-03T02:03:29.260Z,97041.22
2022-11-03T02:06:30.837Z,97047.31
2022-11-03T02:09:32.361Z,97055.75
2022-11-03T02:12:33.896Z,97063.22
2022-11-03T02:15:35.484Z,97069.63
2022-11-03T02:18:37.162Z,97077.84
2022-11-03T02:21:41.774Z,97083.28
2022-11-03T02:25:09.500Z,97078.25
2022-11-03T02:28:11.695Z,97080.38
2022-11-03T02:31:31.662Z,97084.72
2022-11-03T02:34:39.952Z,97096.41
2022-11-03T02:37:42.560Z,97088.91
2022-11-03T02:40:46.021Z,97079.72
2022-11-03T02:43:47.922Z,97085.03
2022-11-03T02:46:50.403Z,97095.72
2022-11-03T02:49:53.374Z,97089.50
2022-11-03T02:52:55.127Z,97089.66
2022-11-03T02:56:06.050Z,97088.41
2022-11-03T02:59:11.724Z,97082.13
2022-11-03T03:02:16.164Z,97099.50
2022-11-03T03:05:17.867Z,97096.78
2022-11-03T03:08:19.419Z,97086.63
2022-11-03T03:11:37.696Z,97091.16
2022-11-03T03:14:41.884Z,97086.22
2022-11-03T03:17:46.366Z,97084.31
2022-11-03T03:20:58.036Z,97073.72
2022-11-03T03:24:00.402Z,97096.03
2022-11-03T03:27:02.088Z,97082.25
2022-11-03T03:30:06.986Z,97073.16
2022-11-03T03:33:09.021Z,97077.66
2022-11-03T03:36:12.118Z,97082.59
2022-11-03T03:39:13.774Z,97086.16
2022-11-03T03:42:15.356Z,97089.31
2022-11-03T03:45:16.910Z,97092.88
2022-11-03T03:48:18.508Z,97099.44
2022-11-03T03:51:20.880Z,97101.34
2022-11-03T03:54:22.443Z,97103.81
2022-11-03T03:57:24.685Z,97101.94
2022-11-03T04:00:26.209Z,97106.00
2022-11-03T04:03:29.295Z,97106.44
2022-11-03T04:06:30.832Z,97108.44
2022-11-03T04:09:32.360Z,97110.00
2022-11-03T04:12:52.339Z,97101.31
2022-11-03T04:16:12.710Z,97115.53
2022-11-03T04:19:33.006Z,97096.22
2022-11-03T04:22:34.515Z,97093.44
2022-11-03T04:25:36.046Z,97102.03
2022-11-03T04:28:37.578Z,97110.78
2022-11-03T04:31:39.195Z,97101.94
2022-11-03T04:34:41.337Z,97098.06
2022-11-03T04:37:46.549Z,97105.25
2022-11-03T04:40:53.695Z,97111.66
2022-11-03T04:43:56.309Z,97118.03
2022-11-03T04:46:57.837Z,97122.31
2022-11-03T04:49:59.359Z,97133.69
2022-11-03T04:53:00.914Z,97130.75
2022-11-03T04:56:07.217Z,97130.75
2022-11-03T04:59:12.788Z,97138.50
2022-11-03T05:02:15.706Z,97127.72
2022-11-03T05:05:20.738Z,97125.06
2022-11-03T05:08:22.327Z,97122.25
2022-11-03T05:11:34.867Z,97131.41
2022-11-03T05:14:36.460Z,97132.28
2022-11-03T05:17:37.991Z,97145.66
2022-11-03T05:20:42.140Z,97137.28
2022-11-03T05:23:48.910Z,97142.78
2022-11-03T05:26:50.443Z,97131.78
2022-11-03T05:29:53.995Z,97126.47
2022-11-03T05:32:58.012Z,97119.41
2022-11-03T05:36:01.783Z,97123.25
2022-11-03T05:39:13.631Z,97138.38
2022-11-03T05:42:31.936Z,97136.69
2022-11-03T05:45:33.850Z,97124.72
2022-11-03T05:48:35.823Z,97111.75
2022-11-03T05:51:38.195Z,97095.97
2022-11-03T05:54:39.683Z,97110.69
2022-11-03T05:57:41.225Z,97113.16
2022-11-03T06:00:48.080Z,97113.75
2022-11-03T06:03:49.802Z,97109.03
2022-11-03T06:06:54.522Z,97114.94
2022-11-03T06:09:56.074Z,97114.13
2022-11-03T06:13:01.978Z,97114.72
2022-11-03T06:16:04.779Z,97122.09
2022-11-03T06:19:18.788Z,97131.78
2022-11-03T06:22:20.274Z,97121.09
2022-11-03T06:25:24.920Z,97126.59
2022-11-03T06:28:27.200Z,97133.97
2022-11-03T06:31:29.256Z,97140.94
2022-11-03T06:34:33.033Z,97152.09
2022-11-03T06:37:34.734Z,97157.13
2022-11-03T06:40:36.538Z,97155.53
2022-11-03T06:43:39.957Z,97166.31
2022-11-03T06:46:41.467Z,97171.03
2022-11-03T06:49:42.960Z,97173.56
2022-11-03T06:52:44.640Z,97181.13
2022-11-03T06:55:47.211Z,97193.97
2022-11-03T06:58:49.087Z,97184.63
2022-11-03T07:01:52.130Z,97187.28
2022-11-03T07:04:53.634Z,97180.34
2022-11-03T07:07:55.683Z,97185.66
2022-11-03T07:11:17.460Z,97185.06
2022-11-03T07:14:29.585Z,97181.34
2022-11-03T07:17:31.080Z,97178.78
2022-11-03T07:20:32.603Z,97179.75
2022-11-03T07:23:34.078Z,97178.75
2022-11-03T07:26:35.603Z,97183.28
2022-11-03T07:29:37.092Z,97193.38
2022-11-03T07:32:38.814Z,97195.25
2022-11-03T07:36:12.988Z,97195.31
2022-11-03T07:39:03.267Z,97195.13
2022-11-03T07:42:14.646Z,97200.44
2022-11-03T07:45:33.834Z,97200.34
2022-11-03T07:48:40.067Z,97215.03
2022-11-03T07:51:41.649Z,97224.25
2022-11-03T07:54:43.174Z,97222.41
2022-11-03T07:57:44.699Z,97213.66
2022-11-03T08:00:46.240Z,97214.56
2022-11-03T08:03:47.921Z,97213.00
2022-11-03T08:06:50.167Z,97214.56
2022-11-03T08:09:52.122Z,97209.59
2022-11-03T08:12:53.653Z,97207.72
2022-11-03T08:15:55.234Z,97200.13
2022-11-03T08:18:57.200Z,97201.91
2022-11-03T08:21:58.866Z,97208.22
2022-11-03T08:25:00.388Z,97205.06
2022-11-03T08:28:03.183Z,97214.69
2022-11-03T08:31:09.500Z,97219.97
2022-11-03T08:34:14.062Z,97212.44
2022-11-03T08:37:15.560Z,97212.91
2022-11-03T08:40:17.283Z,97210.78
2022-11-03T08:43:18.880Z,97202.22
2022-11-03T08:46:20.444Z,97198.00
2022-11-03T08:49:21.951Z,97193.91
2022-11-03T08:52:23.592Z,97190.56
2022-11-03T08:55:25.179Z,97186.31
2022-11-03T08:58:27.006Z,97191.84
2022-11-03T09:01:28.553Z,97199.38
2022-11-03T09:04:30.138Z,97191.81
2022-11-03T09:10:53.488Z,97194.34
2022-11-03T09:13:55.050Z,97186.41
2022-11-03T09:16:56.799Z,97182.69
2022-11-03T09:19:58.454Z,97180.50
2022-11-03T09:23:00.279Z,97190.53
2022-11-03T09:26:01.799Z,97192.88
2022-11-03T09:29:03.387Z,97196.59
2022-11-03T09:32:05.293Z,97205.44
2022-11-03T09:35:08.053Z,97197.41
2022-11-03T09:38:09.926Z,97196.44
2022-11-03T09:41:27.879Z,97198.66
2022-11-03T09:44:42.420Z,97204.03
2022-11-03T09:47:45.344Z,97202.63
2022-11-03T09:50:47.965Z,97208.41
2022-11-03T09:53:49.938Z,97197.81
2022-11-03T09:56:51.520Z,97194.09
2022-11-03T09:59:53.056Z,97185.25
2022-11-03T10:02:54.809Z,97179.38
2022-11-03T10:05:56.366Z,97180.00
2022-11-03T10:08:57.902Z,97177.97
2022-11-03T10:11:59.419Z,97170.81
2022-11-03T10:15:01.388Z,97175.41
2022-11-03T10:18:03.145Z,97178.56
2022-11-03T10:21:06.132Z,97186.00
2022-11-03T10:24:11.290Z,97192.50
2022-11-03T10:27:25.687Z,97188.59
2022-11-03T10:30:29.601Z,97192.56
2022-11-03T10:33:35.886Z,97194.28
2022-11-03T10:36:37.808Z,97200.88
2022-11-03T10:39:39.423Z,97191.31
2022-11-03T10:42:41.022Z,97180.66
2022-11-03T10:45:42.532Z,97184.84
2022-11-03T10:48:44.188Z,97182.31
2022-11-03T10:51:47.556Z,97175.47
2022-11-03T10:54:50.086Z,97180.34
2022-11-03T10:57:53.210Z,97177.72
2022-11-03T11:00:55.042Z,97173.31
2022-11-03T11:03:56.678Z,97170.22
2022-11-03T11:06:58.277Z,97172.63
2022-11-03T11:10:05.317Z,97165.47
2022-11-03T11:13:14.124Z,97156.97
2022-11-03T11:16:35.883Z,97167.19
2022-11-03T11:19:56.076Z,97172.72
2022-11-03T11:23:17.588Z,97167.41
2022-11-03T11:26:22.176Z,97156.84
2022-11-03T11:29:23.676Z,97159.91
2022-11-03T11:32:48.540Z,97142.41
2022-11-03T11:35:54.020Z,97144.06
2022-11-03T11:38:59.831Z,97147.59
2022-11-03T11:42:12.276Z,97151.81
2022-11-03T11:45:14.084Z,97149.97
2022-11-03T11:48:19.180Z,97149.31
2022-11-03T11:51:20.964Z,97156.41
2022-11-03T11:54:22.509Z,97156.38
2022-11-03T11:57:24.134Z,97149.72
2022-11-03T12:00:34.958Z,97149.56
2022-11-03T12:03:37.978Z,97146.47
2022-11-03T12:06:42.459Z,97137.88
2022-11-03T12:09:45.372Z,97138.38
2022-11-03T12:12:46.946Z,97125.59
2022-11-03T12:15:55.094Z,97121.41
2022-11-03T12:18:56.683Z,97121.88
2022-11-03T12:21:58.324Z,97125.13
2022-11-03T12:25:00.798Z,97136.09
2022-11-03T12:28:02.391Z,97129.41
2022-11-03T12:31:04.035Z,97135.81
2022-11-03T12:34:05.660Z,97133.13
2022-11-03T12:37:07.149Z,97126.56
2022-11-03T12:40:09.324Z,97128.88
2022-11-03T12:43:11.430Z,97131.09
2022-11-03T12:46:13.184Z,97127.44
2022-11-03T12:49:14.782Z,97132.50
2022-11-03T12:52:16.346Z,97127.09
2022-11-03T12:55:17.997Z,97125.06
2022-11-03T12:58:19.628Z,97125.38
2022-11-03T13:01:21.264Z,97119.19
2022-11-03T13:04:22.863Z,97116.97
2022-11-03T13:07:30.383Z,97122.06
2022-11-03T13:10:35.925Z,97113.47
2022-11-03T13:13:37.582Z,97113.84
2022-11-03T13:16:39.110Z,97120.41
2022-11-03T13:19:40.645Z,97120.38
2022-11-03T13:22:42.154Z,97116.84
2022-11-03T13:25:46.387Z,97134.03
2022-11-03T13:28:48.011Z,97135.78
2022-11-03T13:31:49.531Z,97133.84
2022-11-03T13:34:51.096Z,97138.44
2022-11-03T13:37:53.358Z,97141.84
2022-11-03T13:40:56.896Z,97137.06
2022-11-03T13:43:59.549Z,97143.03
2022-11-03T13:47:01.066Z,97147.28
2022-11-03T13:50:18.549Z,97156.91
2022-11-03T14:00:05.522Z,97142.84
2022-11-03T14:06:35.786Z,97145.06
2022-11-03T14:12:43.676Z,97136.41
2022-11-03T14:15:45.236Z,97117.59
2022-11-03T14:18:46.757Z,97127.31
2022-11-03T14:21:48.284Z,97114.41
2022-11-03T14:24:50.112Z,97127.59
2022-11-03T14:27:51.762Z,97129.44
2022-11-03T14:30:55.444Z,97134.28
2022-11-03T14:33:56.939Z,97126.50
2022-11-03T14:36:58.541Z,97126.53
2022-11-03T14:40:00.086Z,97132.31
2022-11-03T14:43:01.579Z,97129.03
2022-11-03T14:46:03.212Z,97127.63
2022-11-03T14:49:04.742Z,97126.53
2022-11-03T14:52:09.891Z,97123.38
2022-11-03T14:55:11.434Z,97121.28
2022-11-03T14:58:12.925Z,97123.63
2022-11-03T15:01:14.640Z,97110.63
2022-11-03T15:04:16.377Z,97104.88
2022-11-03T15:07:17.934Z,97099.22
2022-11-03T15:10:19.405Z,97102.63
2022-11-03T15:13:20.907Z,97108.03
2022-11-03T15:16:23.146Z,97105.34
2022-11-03T15:19:24.662Z,97108.94
2022-11-03T15:25:48.090Z,97109.50
2022-11-03T15:28:49.580Z,97120.88
2022-11-03T15:31:51.071Z,97123.06
2022-11-03T15:34:52.665Z,97127.66
2022-11-03T15:37:54.599Z,97127.50
2022-11-03T15:41:15.398Z,97131.44
2022-11-03T15:44:16.886Z,97137.94
2022-11-03T15:47:18.388Z,97141.56
2022-11-03T15:50:20.599Z,97153.13
2022-11-03T15:53:22.091Z,97143.41
2022-11-03T15:56:23.578Z,97156.09
2022-11-03T15:59:25.103Z,97154.38
2022-11-03T16:02:40.864Z,97155.22
2022-11-03T16:05:43.136Z,97153.38
2022-11-03T16:08:45.101Z,97162.28
2022-11-03T16:11:46.595Z,97146.59
2022-11-03T16:14:48.171Z,97152.25
2022-11-03T16:17:49.652Z,97157.03
2022-11-03T16:20:51.143Z,97155.50
2022-11-03T16:23:52.840Z,97153.91
2022-11-03T16:26:54.348Z,97150.97
2022-11-03T16:29:55.862Z,97164.41
2022-11-03T16:32:57.405Z,97159.88
2022-11-03T16:35:58.911Z,97168.03
2022-11-03T16:39:00.443Z,97159.25
2022-11-03T16:42:03.271Z,97160.63
2022-11-03T16:45:08.844Z,97174.63
2022-11-03T16:48:10.700Z,97167.97
2022-11-03T16:51:12.526Z,97177.22
2022-11-03T16:54:14.779Z,97171.13
2022-11-03T16:57:16.401Z,97171.91
2022-11-03T17:00:18.866Z,97180.94
2022-11-03T17:03:20.372Z,97181.72
2022-11-03T17:06:21.943Z,97186.25
2022-11-03T17:09:23.472Z,97182.19
2022-11-03T17:12:25.104Z,97183.28
2022-11-03T17:15:26.645Z,97193.44
2022-11-03T17:18:28.182Z,97193.25
2022-11-03T17:21:29.732Z,97192.09
2022-11-03T17:24:31.249Z,97193.88
2022-11-03T17:27:42.845Z,97195.06
2022-11-03T17:30:44.643Z,97199.28
2022-11-03T17:33:46.176Z,97210.25
2022-11-03T17:36:50.392Z,97209.09
2022-11-03T17:39:51.972Z,97212.91
2022-11-03T17:42:53.549Z,97213.94
2022-11-03T17:45:55.124Z,97225.63
2022-11-03T17:48:56.619Z,97220.06
2022-11-03T17:51:59.456Z,97218.81
2022-11-03T17:55:01.633Z,97227.03
2022-11-03T17:58:04.785Z,97230.88
2022-11-03T18:01:06.357Z,97226.75
2022-11-03T18:07:16.504Z,97230.78
2022-11-03T18:10:18.336Z,97240.47
2022-11-03T18:13:24.327Z,97234.09
2022-11-03T18:16:25.849Z,97235.69
2022-11-03T18:19:27.505Z,97239.38
2022-11-03T18:22:29.672Z,97250.28
2022-11-03T18:25:31.776Z,97248.13
2022-11-03T18:28:33.375Z,97255.81
2022-11-03T18:31:35.830Z,97256.78
2022-11-03T18:34:37.416Z,97251.56
2022-11-03T18:37:38.940Z,97257.81
2022-11-03T18:40:41.028Z,97262.56
2022-11-03T18:43:42.719Z,97260.91
2022-11-03T18:46:44.384Z,97266.78
2022-11-03T18:49:46.412Z,97266.00
2022-11-03T18:52:48.329Z,97272.69
2022-11-03T18:55:49.940Z,97277.97
2022-11-03T18:58:51.703Z,97276.78
2022-11-03T19:01:53.575Z,97284.16
2022-11-03T19:04:55.234Z,97284.34
2022-11-03T19:07:56.800Z,97295.47
2022-11-03T19:11:03.667Z,97300.09
2022-11-03T19:14:05.848Z,97308.38
2022-11-03T19:17:22.400Z,97316.56
2022-11-03T19:20:25.563Z,97317.13
2022-11-03T19:23:27.182Z,97316.88
2022-11-03T19:26:29.801Z,97316.47
2022-11-03T19:29:32.786Z,97319.25
2022-11-03T19:32:35.389Z,97327.47
2022-11-03T19:35:37.075Z,97323.75
2022-11-03T19:38:39.659Z,97336.78
2022-11-03T19:42:00.080Z,97344.19
2022-11-03T19:45:02.498Z,97344.38
2022-11-03T19:51:26.828Z,97350.97
2022-11-03T19:54:29.375Z,97357.03
2022-11-03T19:57:31.219Z,97360.94
2022-11-03T20:00:32.831Z,97362.81
2022-11-03T20:03:34.430Z,97364.91
2022-11-03T20:06:37.838Z,97366.38
2022-11-03T20:09:39.428Z,97368.63
2022-11-03T20:12:41.020Z,97373.16
2022-11-03T20:15:42.629Z,97372.56
2022-11-03T20:18:44.332Z,97373.94
2022-11-03T20:21:45.950Z,97369.94
2022-11-03T20:24:47.698Z,97367.94
2022-11-03T20:27:49.475Z,97369.72
2022-11-03T20:30:51.498Z,97366.97
2022-11-03T20:33:53.771Z,97383.84
2022-11-03T20:36:55.431Z,97382.09
2022-11-03T20:39:56.947Z,97386.91
2022-11-03T20:43:00.047Z,97384.84
2022-11-03T20:46:01.651Z,97401.00
2022-11-03T20:49:03.203Z,97402.50
2022-11-03T20:52:06.284Z,97401.50
2022-11-03T20:55:14.486Z,97399.53
2022-11-03T20:58:17.056Z,97409.09
2022-11-03T21:01:19.657Z,97416.19
2022-11-03T21:04:21.288Z,97423.72
2022-11-03T21:07:22.840Z,97433.53
2022-11-03T21:10:24.436Z,97438.25
2022-11-03T21:13:25.985Z,97442.56
2022-11-03T21:16:46.721Z,97456.09
2022-11-03T21:20:02.790Z,97456.50
2022-11-03T21:23:06.427Z,97459.94
2022-11-03T21:26:09.844Z,97463.59
2022-11-03T21:29:11.372Z,97469.72
2022-11-03T21:32:14.012Z,97480.03
2022-11-03T21:35:16.677Z,97488.78
2022-11-03T21:38:18.476Z,97491.84
2022-11-03T21:41:38.728Z,97497.94
2022-11-03T21:44:40.392Z,97491.16
2022-11-03T21:48:01.900Z,97496.28
2022-11-03T21:51:03.487Z,97489.63
2022-11-03T21:54:05.162Z,97500.69
2022-11-03T21:57:07.383Z,97503.72
2022-11-03T22:00:09.338Z,97503.31
2022-11-03T22:03:11.461Z,97499.38
2022-11-03T22:06:13.144Z,97502.81
2022-11-03T22:09:15.295Z,97505.47
2022-11-03T22:12:16.972Z,97505.00
2022-11-03T22:15:37.111Z,97510.09
2022-11-03T22:18:38.620Z,97515.25
2022-11-03T22:21:58.616Z,97518.47
2022-11-03T22:25:18.800Z,97513.75
2022-11-03T22:28:20.634Z,97527.84
2022-11-03T22:31:40.548Z,97531.75
2022-11-03T22:35:00.520Z,97537.19
2022-11-03T22:38:06.293Z,97535.66
2022-11-03T22:41:26.599Z,97538.91
2022-11-03T22:45:03.536Z,97538.28
2022-11-03T22:48:05.187Z,97534.13
2022-11-03T22:51:08.972Z,97537.84
2022-11-03T22:54:10.554Z,97535.25
2022-11-03T22:57:13.215Z,97547.19
2022-11-03T23:00:15.246Z,97547.63
2022-11-03T23:03:16.807Z,97550.56
2022-11-03T23:06:19.679Z,97556.75
2022-11-03T23:09:21.249Z,97553.09
2022-11-03T23:12:22.866Z,97557.09
2022-11-03T23:15:33.531Z,97557.09
2022-11-03T23:18:53.566Z,97575.44
2022-11-03T23:21:55.177Z,97566.47
2022-11-03T23:24:59.783Z,97573.50
2022-11-03T23:28:01.305Z,97577.78
2022-11-03T23:31:02.887Z,97586.78
2022-11-03T23:34:04.837Z,97584.97
2022-11-03T23:37:06.514Z,97592.38
2022-11-03T23:40:08.335Z,97601.69
2022-11-03T23:43:09.972Z,97591.09
2022-11-03T23:46:30.727Z,97603.16
2022-11-03T23:49:32.485Z,97594.66
2022-11-03T23:52:34.156Z,97606.88
2022-11-03T23:55:55.659Z,97611.97
2022-11-03T23:58:57.196Z,97605.09
